Time;durP1;ratioP1;P1;durP2;ratioP2;P2;SDS_P1;SDS_P2;PMS_P1;PMS_P2;Temp;Humidity;BMP_temperature;BMP_pressure;BME280_temperature;BME280_humidity;BME280_pressure;Samples;Min_cycle;Max_cycle;Signal;HPM_P1;HPM_P2
2024/03/13 00:01:02;;;;;;;4.23;4.13;;;24.70;1.00;;;;;;2609563;54;20530;-66
2024/03/13 00:03:32;;;;;;;4.20;4.10;;;24.60;1.00;;;;;;2610364;54;20435;-66
2024/03/13 00:05:58;;;;;;;5.33;5.13;;;24.70;1.00;;;;;;2608049;54;20419;-66
2024/03/13 00:08:23;;;;;;;4.50;4.40;;;24.60;1.00;;;;;;2608612;54;20412;-68
2024/03/13 00:10:50;;;;;;;4.40;4.30;;;24.60;1.00;;;;;;2610916;54;20437;-60
2024/03/13 00:13:16;;;;;;;4.60;4.50;;;24.60;1.00;;;;;;2610162;54;20680;-61
2024/03/13 00:15:42;;;;;;;4.40;4.30;;;24.60;1.00;;;;;;2610714;54;20409;-60
2024/03/13 00:18:08;;;;;;;4.33;4.23;;;24.60;1.00;;;;;;2610911;54;20194;-60
2024/03/13 00:20:34;;;;;;;4.13;4.03;;;24.60;1.00;;;;;;2609744;54;20427;-67
2024/03/13 00:23:01;;;;;;;5.80;5.60;;;24.50;1.00;;;;;;2609198;54;20414;-67
2024/03/13 00:25:27;;;;;;;4.80;4.60;;;24.50;1.00;;;;;;2611856;54;20439;-67
2024/03/13 00:27:55;;;;;;;4.40;4.30;;;24.50;1.00;;;;;;2610381;54;20438;-67
2024/03/13 00:30:23;;;;;;;3.90;3.80;;;24.50;1.00;;;;;;2610333;54;20435;-65
2024/03/13 00:32:53;;;;;;;10.57;9.90;;;24.50;1.00;;;;;;2611565;54;20519;-63
2024/03/13 00:35:20;;;;;;;3.90;3.80;;;24.50;1.00;;;;;;2612975;47;20422;-63
2024/03/13 00:37:47;;;;;;;4.27;4.17;;;24.60;1.00;;;;;;2612385;54;20526;-63
2024/03/13 00:40:13;;;;;;;4.00;3.90;;;24.50;1.00;;;;;;2611881;54;20407;-63
2024/03/13 00:42:39;;;;;;;3.57;3.47;;;24.50;1.00;;;;;;2609924;54;22026;-64
2024/03/13 00:45:05;;;;;;;4.20;4.10;;;24.50;1.00;;;;;;2610863;54;20422;-64
2024/03/13 00:47:31;;;;;;;4.27;4.17;;;24.50;1.00;;;;;;2611647;54;20169;-63
2024/03/13 00:49:57;;;;;;;4.80;4.60;;;24.50;1.00;;;;;;2610913;54;20708;-64
2024/03/13 00:52:23;;;;;;;4.40;4.30;;;24.50;1.00;;;;;;2609872;54;20438;-64
2024/03/13 00:54:48;;;;;;;4.50;4.40;;;24.50;1.00;;;;;;2610611;54;20463;-63
2024/03/13 00:57:18;;;;;;;4.57;4.47;;;24.50;1.00;;;;;;2611668;54;20174;-64
2024/03/13 00:59:46;;;;;;;4.43;4.33;;;24.50;1.00;;;;;;2610455;47;20214;-64
2024/03/13 01:02:12;;;;;;;4.80;4.60;;;24.50;1.00;;;;;;2610519;54;20458;-65
2024/03/13 01:04:37;;;;;;;4.67;4.57;;;24.50;1.00;;;;;;2611808;39;20819;-65
2024/03/13 01:07:07;;;;;;;5.30;5.10;;;24.50;1.00;;;;;;2612204;54;20618;-64
2024/03/13 01:09:33;;;;;;;4.80;4.60;;;24.50;1.00;;;;;;2609466;54;20878;-64
2024/03/13 01:11:59;;;;;;;4.20;4.10;;;24.40;1.00;;;;;;2610961;47;20392;-64
2024/03/13 01:14:24;;;;;;;4.20;4.10;;;24.40;1.00;;;;;;2612536;39;20900;-64
2024/03/13 01:16:52;;;;;;;4.30;4.20;;;24.40;1.00;;;;;;2611476;47;20686;-64
2024/03/13 01:19:19;;;;;;;4.37;4.27;;;24.40;1.00;;;;;;2612310;54;20162;-67
2024/03/13 01:22:05;;;;;;;4.50;4.40;;;24.40;1.00;;;;;;2611528;51;20415;-66
2024/03/13 01:24:32;;;;;;;4.30;4.20;;;24.40;1.00;;;;;;2613030;39;20831;-66
2024/03/13 01:26:58;;;;;;;4.40;4.30;;;24.40;1.00;;;;;;2611524;47;20431;-66
2024/03/13 01:29:24;;;;;;;4.50;4.40;;;24.40;1.00;;;;;;2612167;47;20428;-72
2024/03/13 01:31:50;;;;;;;4.60;4.50;;;24.40;1.00;;;;;;2608329;54;20507;-71
2024/03/13 01:34:16;;;;;;;4.50;4.40;;;24.40;1.00;;;;;;2611492;54;20426;-71
2024/03/13 01:39:26;;;;;;;4.90;4.70;;;24.40;1.00;;;;;;2611902;54;20779;-61
2024/03/13 01:55:44;;;;;;;6.07;5.80;;;24.30;1.00;;;;;;2612614;39;20836;-61
2024/03/13 01:58:19;;;;;;;4.07;3.97;;;24.40;1.00;;;;;;2611428;54;20530;-60
2024/03/13 02:03:31;;;;;;;4.80;4.60;;;24.30;1.00;;;;;;2610332;54;20438;-60
2024/03/13 02:05:57;;;;;;;4.67;4.50;;;24.30;1.00;;;;;;2611548;39;20808;-61
2024/03/13 02:08:24;;;;;;;4.50;4.30;;;24.30;1.00;;;;;;2611132;54;20399;-61
2024/03/13 02:10:50;;;;;;;4.27;4.17;;;24.30;1.00;;;;;;2610568;54;20455;-62
2024/03/13 02:13:18;;;;;;;3.97;3.87;;;24.30;1.00;;;;;;2611445;54;20396;-62
2024/03/13 02:15:44;;;;;;;5.20;5.00;;;24.30;1.00;;;;;;2609674;54;20434;-62
2024/03/13 02:18:23;;;;;;;3.90;3.80;;;24.30;1.00;;;;;;2611432;54;20435;-61
2024/03/13 02:20:51;;;;;;;3.70;3.60;;;24.30;1.00;;;;;;2612636;54;20395;-61
2024/03/13 02:23:23;;;;;;;4.67;4.47;;;24.30;1.00;;;;;;2611768;54;20423;-61
2024/03/13 02:25:53;;;;;;;4.33;4.23;;;24.30;1.00;;;;;;2610498;54;20400;-62
2024/03/13 02:28:39;;;;;;;4.60;4.40;;;24.30;1.00;;;;;;2610760;54;20427;-60
2024/03/13 02:31:08;;;;;;;4.57;4.40;;;24.30;1.00;;;;;;2611185;54;20938;-63
2024/03/13 02:33:35;;;;;;;4.30;4.20;;;24.30;1.00;;;;;;2611688;54;20414;-64
2024/03/13 02:36:01;;;;;;;4.33;4.23;;;24.30;1.00;;;;;;2611947;54;20391;-64
2024/03/13 02:38:28;;;;;;;4.77;4.57;;;24.30;1.00;;;;;;2607488;54;20442;-64
2024/03/13 02:40:54;;;;;;;4.10;4.00;;;24.30;1.00;;;;;;2610954;54;20161;-68
2024/03/13 02:43:20;;;;;;;4.07;3.97;;;24.30;1.00;;;;;;2611743;54;20417;-67
2024/03/13 02:45:46;;;;;;;11.03;6.93;;;24.30;1.00;;;;;;2611303;54;20419;-66
2024/03/13 02:48:12;;;;;;;4.43;4.33;;;24.30;1.00;;;;;;2610011;54;20492;-67
2024/03/13 02:50:41;;;;;;;4.20;4.10;;;24.30;1.00;;;;;;2613632;54;20664;-64
2024/03/13 02:53:10;;;;;;;4.20;4.10;;;24.30;1.00;;;;;;2611177;54;21047;-64
2024/03/13 02:55:39;;;;;;;5.90;5.70;;;24.30;1.00;;;;;;2612500;54;21006;-64
2024/03/13 02:58:05;;;;;;;4.10;4.00;;;24.30;1.00;;;;;;2610892;54;20468;-63
2024/03/13 03:00:31;;;;;;;4.87;4.67;;;24.30;1.00;;;;;;2611212;54;20411;-63
2024/03/13 03:02:57;;;;;;;3.97;3.87;;;24.30;1.00;;;;;;2610986;39;20583;-63
2024/03/13 03:05:24;;;;;;;3.97;3.87;;;24.30;1.00;;;;;;2609345;54;20419;-63
2024/03/13 03:07:51;;;;;;;3.93;3.83;;;24.30;1.00;;;;;;2611874;54;20408;-63
2024/03/13 03:10:16;;;;;;;4.10;4.00;;;24.20;1.00;;;;;;2611858;39;20819;-62
2024/03/13 03:12:45;;;;;;;4.40;4.30;;;24.20;1.00;;;;;;2611592;47;20427;-63
2024/03/13 03:15:11;;;;;;;3.93;3.83;;;24.20;1.00;;;;;;2610544;54;20166;-63
2024/03/13 03:17:37;;;;;;;4.30;4.20;;;24.30;1.00;;;;;;2611979;54;20411;-64
2024/03/13 03:20:04;;;;;;;6.50;6.20;;;24.30;1.00;;;;;;2611924;31;20951;-63
2024/03/13 03:22:30;;;;;;;4.20;4.10;;;24.20;1.00;;;;;;2612999;54;20155;-63
2024/03/13 03:24:55;;;;;;;4.10;4.00;;;24.20;1.00;;;;;;2611731;54;20426;-63
2024/03/13 03:27:22;;;;;;;4.50;4.40;;;24.20;1.00;;;;;;2610954;54;20395;-62
2024/03/13 03:29:47;;;;;;;4.43;4.33;;;24.20;1.00;;;;;;2611406;39;20629;-63
2024/03/13 03:32:14;;;;;;;4.17;4.07;;;24.30;1.00;;;;;;2611419;54;20395;-62
2024/03/13 03:34:40;;;;;;;4.43;4.33;;;24.30;1.00;;;;;;2612288;54;20171;-62
2024/03/13 03:37:07;;;;;;;5.17;4.97;;;24.30;1.00;;;;;;2612513;54;20407;-63
2024/03/13 03:39:38;;;;;;;4.53;4.43;;;24.30;1.00;;;;;;2610677;54;20155;-66
2024/03/13 03:42:04;;;;;;;4.20;4.10;;;24.20;1.00;;;;;;2609898;54;21008;-67
2024/03/13 03:44:29;;;;;;;4.17;4.07;;;24.20;1.00;;;;;;2611992;54;20407;-66
2024/03/13 03:46:56;;;;;;;5.33;5.13;;;24.20;1.00;;;;;;2612634;54;20193;-66
2024/03/13 03:49:24;;;;;;;4.50;4.40;;;24.30;1.00;;;;;;2611617;54;20150;-62
2024/03/13 03:51:50;;;;;;;4.63;4.50;;;24.20;1.00;;;;;;2612166;39;20868;-62
2024/03/13 03:54:16;;;;;;;5.00;4.80;;;24.20;1.00;;;;;;2612258;54;20943;-63
2024/03/13 03:56:41;;;;;;;4.97;4.77;;;24.30;1.00;;;;;;2611639;47;20250;-63
2024/03/13 03:59:10;;;;;;;5.03;4.83;;;24.20;1.00;;;;;;2611849;39;20509;-63
2024/03/13 04:01:36;;;;;;;5.60;5.40;;;24.20;1.00;;;;;;2609398;54;20151;-66
2024/03/13 04:04:05;;;;;;;4.73;4.60;;;24.20;1.00;;;;;;2611863;54;20462;-66
2024/03/13 04:06:31;;;;;;;5.10;4.90;;;24.30;1.00;;;;;;2611194;39;20638;-64
2024/03/13 04:08:57;;;;;;;4.50;4.40;;;24.30;1.00;;;;;;2612833;54;20388;-67
2024/03/13 04:11:23;;;;;;;5.30;5.10;;;24.20;1.00;;;;;;2612966;54;20396;-67
2024/03/13 04:13:49;;;;;;;5.00;4.80;;;24.30;1.00;;;;;;2612856;54;20158;-67
2024/03/13 04:16:16;;;;;;;4.20;4.10;;;24.20;1.00;;;;;;2612023;54;20395;-67
2024/03/13 04:18:43;;;;;;;5.53;5.33;;;24.20;1.00;;;;;;2612071;39;20866;-65
2024/03/13 04:21:09;;;;;;;4.23;4.13;;;24.20;1.00;;;;;;2611884;54;20539;-66
2024/03/13 04:23:35;;;;;;;4.57;4.47;;;24.20;1.00;;;;;;2612779;54;20395;-67
2024/03/13 04:26:03;;;;;;;5.10;4.90;;;24.20;1.00;;;;;;2612033;54;20426;-66
2024/03/13 04:28:29;;;;;;;5.10;4.90;;;24.20;1.00;;;;;;2612823;54;20178;-66
2024/03/13 04:30:55;;;;;;;5.07;4.87;;;24.20;1.00;;;;;;2611489;54;20387;-67
2024/03/13 04:33:20;;;;;;;5.20;5.00;;;24.20;1.00;;;;;;2613120;39;20559;-67
2024/03/13 04:35:46;;;;;;;6.00;5.80;;;24.20;1.00;;;;;;2613690;54;20166;-67
2024/03/13 04:38:13;;;;;;;4.60;4.50;;;24.20;1.00;;;;;;2611802;54;20155;-67
2024/03/13 04:40:39;;;;;;;4.63;4.53;;;24.20;1.00;;;;;;2612687;54;21073;-67
2024/03/13 04:43:08;;;;;;;5.20;5.00;;;24.20;1.00;;;;;;2611129;54;20495;-67
2024/03/13 04:45:36;;;;;;;5.23;5.03;;;24.10;1.00;;;;;;2610323;54;20442;-67
2024/03/13 04:48:02;;;;;;;5.50;5.30;;;24.10;1.00;;;;;;2612691;54;20454;-67
2024/03/13 04:50:30;;;;;;;5.10;4.90;;;24.10;1.00;;;;;;2612333;54;20454;-61
2024/03/13 04:52:55;;;;;;;4.80;4.60;;;24.20;1.00;;;;;;2611528;54;20481;-60
2024/03/13 04:55:21;;;;;;;4.70;4.50;;;24.20;1.00;;;;;;2611821;54;20388;-61
2024/03/13 04:57:47;;;;;;;4.70;4.60;;;24.20;1.00;;;;;;2611932;39;20432;-61
2024/03/13 05:00:14;;;;;;;5.70;5.50;;;24.20;1.00;;;;;;2610686;54;20159;-74
2024/03/13 05:02:40;;;;;;;4.70;4.60;;;24.20;1.00;;;;;;2611187;39;20649;-73
2024/03/13 05:05:09;;;;;;;5.10;4.90;;;24.20;1.00;;;;;;2612406;54;20427;-74
2024/03/13 05:07:35;;;;;;;4.50;4.40;;;24.10;1.00;;;;;;2610274;54;20143;-74
2024/03/13 05:10:01;;;;;;;4.97;4.80;;;24.10;1.00;;;;;;2610973;54;20526;-65
2024/03/13 05:12:32;;;;;;;4.70;4.60;;;24.20;1.00;;;;;;2611038;47;20174;-65
2024/03/13 05:14:58;;;;;;;4.87;4.67;;;24.10;1.00;;;;;;2612277;54;20185;-65
2024/03/13 05:17:24;;;;;;;5.30;5.10;;;24.20;1.00;;;;;;2612215;54;20428;-65
2024/03/13 05:19:49;;;;;;;4.63;4.50;;;24.20;1.00;;;;;;2611449;47;20155;-66
2024/03/13 05:22:15;;;;;;;4.50;4.40;;;24.20;1.00;;;;;;2612326;54;20143;-65
2024/03/13 05:24:41;;;;;;;4.20;4.10;;;24.30;1.00;;;;;;2612453;54;20154;-66
2024/03/13 05:27:07;;;;;;;5.20;5.00;;;24.10;1.00;;;;;;2610831;54;20196;-66
2024/03/13 05:29:33;;;;;;;4.60;4.50;;;24.10;1.00;;;;;;2610544;39;21012;-66
2024/03/13 05:32:09;;;;;;;4.70;4.60;;;24.00;1.00;;;;;;2612405;39;21698;-66
2024/03/13 05:34:37;;;;;;;4.80;4.60;;;24.00;1.00;;;;;;2613011;47;20462;-65
2024/03/13 05:37:03;;;;;;;4.30;4.20;;;24.10;1.00;;;;;;2612042;54;20419;-66
2024/03/13 05:39:29;;;;;;;4.43;4.33;;;24.10;1.00;;;;;;2612680;39;21034;-66
2024/03/13 05:41:54;;;;;;;4.50;4.40;;;24.20;1.00;;;;;;2611655;54;20403;-66
2024/03/13 05:44:20;;;;;;;5.90;5.70;;;24.20;1.00;;;;;;2610655;39;20616;-67
2024/03/13 05:46:48;;;;;;;4.00;3.90;;;24.20;1.00;;;;;;2612136;47;20175;-67
2024/03/13 05:49:16;;;;;;;4.40;4.30;;;24.20;1.00;;;;;;2611131;39;20636;-65
2024/03/13 05:51:42;;;;;;;5.30;5.10;;;24.20;1.00;;;;;;2611729;54;20407;-67
2024/03/13 05:54:08;;;;;;;5.00;4.80;;;24.20;1.00;;;;;;2611757;54;20451;-66
2024/03/13 05:56:34;;;;;;;5.00;4.80;;;24.20;1.00;;;;;;2612493;54;20519;-66
2024/03/13 05:58:59;;;;;;;5.30;5.10;;;24.20;1.00;;;;;;2610101;54;20151;-69
2024/03/13 06:01:28;;;;;;;5.00;4.80;;;24.20;1.00;;;;;;2609672;54;20173;-60
2024/03/13 06:03:53;;;;;;;4.63;4.53;;;24.20;1.00;;;;;;2611844;39;20537;-63
2024/03/13 06:06:21;;;;;;;4.60;4.50;;;24.20;1.00;;;;;;2610729;54;20420;-65
2024/03/13 06:08:47;;;;;;;4.90;4.70;;;24.30;1.00;;;;;;2611990;54;20167;-64
2024/03/13 06:11:12;;;;;;;5.23;5.03;;;24.20;1.00;;;;;;2610881;54;20884;-61
2024/03/13 06:13:38;;;;;;;4.43;4.33;;;24.20;1.00;;;;;;2611426;54;20652;-61
2024/03/13 06:16:06;;;;;;;4.60;4.50;;;24.20;1.00;;;;;;2610364;39;20466;-61
2024/03/13 06:18:33;;;;;;;4.00;3.90;;;24.20;1.00;;;;;;2609029;54;20300;-64
2024/03/13 06:20:59;;;;;;;14.00;13.60;;;24.30;1.00;;;;;;2612196;54;20824;-71
2024/03/13 06:23:27;;;;;;;14.00;13.60;;;24.30;1.00;;;;;;2612945;54;20414;-72
2024/03/13 06:25:54;;;;;;;14.40;13.90;;;24.40;1.00;;;;;;2613880;54;20530;-72
2024/03/13 06:31:04;;;;;;;14.73;14.23;;;24.40;1.00;;;;;;2613612;54;20419;-71
2024/03/13 06:33:31;;;;;;;16.53;15.87;;;24.50;1.00;;;;;;2613253;54;20499;-73
2024/03/13 06:35:56;;;;;;;12.90;12.50;;;24.50;1.00;;;;;;2613903;54;20231;-74
2024/03/13 06:38:22;;;;;;;5.90;5.70;;;24.50;1.00;;;;;;2612173;54;20395;-64
2024/03/13 06:40:48;;;;;;;14.03;13.60;;;24.60;1.00;;;;;;2612158;39;20328;-66
2024/03/13 06:43:14;;;;;;;14.20;13.70;;;24.60;1.00;;;;;;2612751;54;20703;-68
2024/03/13 06:45:46;;;;;;;6.80;6.60;;;24.60;1.00;;;;;;2612504;54;20155;-72
2024/03/13 06:48:15;;;;;;;7.00;6.80;;;24.60;1.00;;;;;;2612897;54;20534;-64
2024/03/13 06:50:41;;;;;;;5.20;5.00;;;24.70;1.00;;;;;;2611422;54;20438;-64
2024/03/13 06:53:08;;;;;;;5.20;5.00;;;24.70;1.00;;;;;;2611742;54;20774;-63
2024/03/13 06:55:34;;;;;;;4.30;4.20;;;24.70;1.00;;;;;;2609820;54;20415;-66
2024/03/13 06:58:00;;;;;;;4.20;4.10;;;24.60;1.00;;;;;;2610029;54;20423;-65
2024/03/13 07:00:27;;;;;;;4.50;4.40;;;24.60;1.00;;;;;;2609773;54;20458;-66
2024/03/13 07:02:57;;;;;;;4.60;4.50;;;24.60;1.00;;;;;;2610768;54;20534;-66
2024/03/13 07:05:25;;;;;;;4.33;4.23;;;24.70;1.00;;;;;;2611330;54;20391;-66
2024/03/13 07:07:52;;;;;;;5.10;4.90;;;24.70;1.00;;;;;;2611091;46;20427;-66
2024/03/13 07:10:18;;;;;;;4.60;4.50;;;24.70;1.00;;;;;;2612574;54;20482;-64
2024/03/13 07:12:43;;;;;;;4.30;4.20;;;24.70;1.00;;;;;;2611398;54;20389;-64
2024/03/13 07:15:10;;;;;;;4.80;4.70;;;24.70;1.00;;;;;;2611938;54;20147;-64
2024/03/13 07:17:36;;;;;;;5.20;5.00;;;24.80;1.00;;;;;;2611488;54;20158;-64
2024/03/13 07:20:03;;;;;;;4.97;4.80;;;24.80;1.00;;;;;;2611942;54;20988;-65
2024/03/13 07:22:29;;;;;;;5.10;4.90;;;24.80;1.00;;;;;;2612259;54;20411;-65
2024/03/13 07:24:55;;;;;;;5.50;5.30;;;24.80;1.00;;;;;;2611923;54;20965;-65
2024/03/13 07:27:20;;;;;;;4.17;4.07;;;24.80;1.00;;;;;;2611270;39;20903;-65
2024/03/13 07:29:46;;;;;;;4.47;4.37;;;24.80;1.00;;;;;;2611416;54;20162;-65
2024/03/13 07:32:16;;;;;;;3.90;3.80;;;24.80;1.00;;;;;;2612172;47;20201;-65
2024/03/13 07:34:42;;;;;;;4.10;4.00;;;24.80;1.00;;;;;;2612766;54;20147;-65
2024/03/13 07:37:10;;;;;;;4.30;4.20;;;24.80;1.00;;;;;;2612261;39;20754;-66
2024/03/13 07:39:36;;;;;;;4.30;4.20;;;24.80;1.00;;;;;;2612343;39;20739;-64
2024/03/13 07:42:02;;;;;;;4.33;4.23;;;24.80;1.00;;;;;;2612111;54;21114;-65
2024/03/13 07:44:28;;;;;;;6.23;6.03;;;24.80;1.00;;;;;;2612423;54;20403;-64
2024/03/13 07:46:54;;;;;;;4.97;4.77;;;24.80;1.00;;;;;;2612085;47;20439;-65
2024/03/13 07:49:19;;;;;;;4.30;4.20;;;24.80;1.00;;;;;;2612179;54;20168;-65
2024/03/13 07:51:45;;;;;;;5.10;4.90;;;24.80;1.00;;;;;;2611259;54;20182;-65
2024/03/13 07:54:11;;;;;;;4.50;4.40;;;24.80;1.00;;;;;;2612309;54;20181;-65
2024/03/13 07:56:37;;;;;;;5.80;5.60;;;24.80;1.00;;;;;;2611913;54;20707;-65
2024/03/13 07:59:06;;;;;;;5.40;5.20;;;24.70;1.00;;;;;;2611059;54;20431;-66
2024/03/13 08:01:42;;;;;;;5.90;5.70;;;24.70;1.00;;;;;;2610682;54;20431;-66
2024/03/13 08:04:09;;;;;;;7.03;6.73;;;24.70;1.00;;;;;;2611693;39;20859;-66
2024/03/13 08:06:40;;;;;;;5.70;5.50;;;24.70;1.00;;;;;;2611085;54;20414;-65
2024/03/13 08:09:06;;;;;;;5.40;5.20;;;24.70;1.00;;;;;;2612108;54;20450;-66
2024/03/13 08:11:32;;;;;;;5.40;5.20;;;24.70;1.00;;;;;;2612308;54;20403;-65
2024/03/13 08:14:01;;;;;;;5.10;4.90;;;24.70;1.00;;;;;;2611401;39;22101;-66
2024/03/13 08:16:27;;;;;;;6.17;5.77;;;24.70;1.00;;;;;;2611047;54;20400;-66
2024/03/13 08:18:53;;;;;;;5.33;5.13;;;24.70;1.00;;;;;;2610735;54;20992;-65
2024/03/13 08:21:18;;;;;;;5.00;4.80;;;24.70;1.00;;;;;;2612051;54;20135;-64
2024/03/13 08:23:47;;;;;;;5.20;5.00;;;24.70;1.00;;;;;;2612533;54;20167;-64
2024/03/13 08:26:13;;;;;;;5.33;5.13;;;24.70;1.00;;;;;;2611373;47;20853;-64
2024/03/13 08:28:40;;;;;;;5.87;5.67;;;24.70;1.00;;;;;;2612301;54;21080;-64
2024/03/13 08:31:06;;;;;;;5.30;5.10;;;24.70;1.00;;;;;;2610942;54;20470;-65
2024/03/13 08:33:32;;;;;;;5.60;5.40;;;24.70;1.00;;;;;;2611891;54;20467;-65
2024/03/13 08:36:02;;;;;;;5.20;5.00;;;24.70;1.00;;;;;;2611507;47;20415;-65
2024/03/13 08:38:28;;;;;;;4.93;4.73;;;24.70;1.00;;;;;;2612066;54;20844;-65
2024/03/13 08:40:54;;;;;;;5.10;4.90;;;24.70;1.00;;;;;;2612278;54;20407;-60
2024/03/13 08:43:20;;;;;;;5.40;5.20;;;24.70;1.00;;;;;;2611043;54;21055;-60
2024/03/13 08:45:46;;;;;;;5.40;5.20;;;24.70;1.00;;;;;;2613298;54;20399;-60
2024/03/13 08:48:12;;;;;;;5.20;5.00;;;24.70;1.00;;;;;;2612528;54;20975;-60
2024/03/13 08:50:38;;;;;;;5.50;5.30;;;24.70;1.00;;;;;;2612824;54;20383;-60
2024/03/13 08:53:04;;;;;;;5.30;5.10;;;24.70;1.00;;;;;;2612998;39;20645;-60
2024/03/13 08:55:34;;;;;;;5.53;5.33;;;24.70;1.00;;;;;;2612017;54;20408;-60
2024/03/13 08:58:01;;;;;;;5.70;5.50;;;24.70;1.00;;;;;;2611951;47;20450;-60
2024/03/13 09:00:27;;;;;;;5.33;5.13;;;24.70;1.00;;;;;;2611617;54;20407;-58
2024/03/13 09:02:59;;;;;;;4.87;4.70;;;24.70;1.00;;;;;;2612348;54;20495;-59
2024/03/13 09:05:28;;;;;;;4.70;4.60;;;24.70;1.00;;;;;;2611350;54;20155;-60
2024/03/13 09:07:54;;;;;;;5.40;5.20;;;24.70;1.00;;;;;;2612240;47;20434;-60
2024/03/13 09:10:21;;;;;;;4.50;4.40;;;24.70;1.00;;;;;;2611820;53;20431;-60
2024/03/13 09:12:47;;;;;;;4.40;4.30;;;24.70;1.00;;;;;;2611821;54;20563;-59
2024/03/13 09:15:13;;;;;;;4.63;4.53;;;24.70;1.00;;;;;;2612478;54;20408;-60
2024/03/13 09:17:39;;;;;;;4.87;4.70;;;24.70;1.00;;;;;;2612614;54;20421;-59
2024/03/13 09:20:06;;;;;;;5.53;5.33;;;24.70;1.00;;;;;;2612768;39;20797;-59
2024/03/13 09:22:32;;;;;;;5.43;5.23;;;24.70;1.00;;;;;;2612542;54;21315;-59
2024/03/13 09:24:57;;;;;;;5.10;4.90;;;24.70;1.00;;;;;;2613249;54;20404;-59
2024/03/13 09:27:23;;;;;;;5.67;5.47;;;24.70;1.00;;;;;;2613001;54;20146;-59
2024/03/13 09:29:50;;;;;;;6.10;5.90;;;24.70;1.00;;;;;;2612132;54;20147;-65
2024/03/13 09:32:15;;;;;;;5.00;4.80;;;24.70;1.00;;;;;;2611974;54;20408;-65
2024/03/13 09:34:41;;;;;;;5.60;5.40;;;24.70;1.00;;;;;;2612854;47;20495;-65
2024/03/13 09:37:07;;;;;;;5.03;4.83;;;24.70;1.00;;;;;;2612785;54;20159;-65
2024/03/13 09:39:35;;;;;;;4.93;4.73;;;24.70;1.00;;;;;;2612985;54;20219;-66
2024/03/13 09:42:01;;;;;;;3.70;3.60;;;24.80;1.00;;;;;;2612148;54;20976;-66
2024/03/13 09:44:29;;;;;;;3.90;3.80;;;24.70;1.00;;;;;;2611453;54;20431;-66
2024/03/13 09:46:57;;;;;;;4.30;4.20;;;24.70;1.00;;;;;;2612057;31;21076;-65
2024/03/13 09:49:25;;;;;;;4.43;4.33;;;24.80;1.00;;;;;;2613387;54;20402;-65
2024/03/13 09:51:51;;;;;;;4.50;4.40;;;24.70;1.00;;;;;;2612302;54;20980;-65
2024/03/13 09:54:19;;;;;;;4.30;4.20;;;24.70;1.00;;;;;;2613288;39;20844;-65
2024/03/13 09:56:47;;;;;;;5.67;5.47;;;24.80;1.00;;;;;;2611897;39;20775;-65
2024/03/13 09:59:13;;;;;;;4.87;4.77;;;24.70;1.00;;;;;;2613194;39;20857;-65
2024/03/13 10:01:47;;;;;;;4.97;4.80;;;24.70;1.00;;;;;;2610954;54;20886;-66
2024/03/13 10:04:20;;;;;;;5.50;5.30;;;24.80;1.00;;;;;;2611198;47;20492;-64
2024/03/13 10:06:53;;;;;;;4.70;4.60;;;24.70;1.00;;;;;;2612109;54;20403;-65
2024/03/13 10:09:35;;;;;;;5.50;5.30;;;24.70;1.00;;;;;;2612700;54;20894;-64
2024/03/13 10:12:03;;;;;;;4.83;4.70;;;24.70;1.00;;;;;;2612169;54;20458;-65
2024/03/13 10:14:30;;;;;;;5.40;5.20;;;24.80;1.00;;;;;;2613017;54;20454;-64
2024/03/13 10:17:01;;;;;;;5.03;4.83;;;24.80;1.00;;;;;;2612160;47;20411;-65
2024/03/13 10:19:29;;;;;;;5.10;4.90;;;24.80;1.00;;;;;;2611732;54;20415;-65
2024/03/13 10:21:56;;;;;;;5.70;5.50;;;24.80;1.00;;;;;;2612839;39;20450;-66
2024/03/13 10:24:25;;;;;;;4.60;4.50;;;24.80;1.00;;;;;;2612036;54;20495;-65
2024/03/13 10:26:53;;;;;;;4.50;4.40;;;24.80;1.00;;;;;;2611998;54;20420;-65
2024/03/13 10:29:19;;;;;;;4.90;4.70;;;24.80;1.00;;;;;;2612882;54;20415;-66
2024/03/13 10:31:45;;;;;;;5.00;4.80;;;24.80;1.00;;;;;;2610750;54;20439;-67
2024/03/13 10:34:11;;;;;;;5.20;5.00;;;24.80;1.00;;;;;;2611416;54;21504;-66
2024/03/13 10:36:39;;;;;;;4.60;4.50;;;24.80;1.00;;;;;;2612258;54;20399;-67
2024/03/13 10:39:08;;;;;;;4.93;4.77;;;24.80;1.00;;;;;;2612468;39;20560;-80
2024/03/13 10:41:34;;;;;;;4.67;4.57;;;24.80;1.00;;;;;;2612590;54;20400;-69
2024/03/13 10:44:00;;;;;;;5.00;4.80;;;24.80;1.00;;;;;;2612931;39;20822;-67
2024/03/13 10:46:26;;;;;;;4.90;4.70;;;24.80;1.00;;;;;;2612506;54;20147;-68
2024/03/13 10:48:52;;;;;;;5.57;5.37;;;24.70;1.00;;;;;;2612340;54;20392;-68
2024/03/13 10:51:18;;;;;;;4.70;4.60;;;24.70;1.00;;;;;;2613628;39;20797;-79
2024/03/13 10:53:45;;;;;;;4.37;4.27;;;24.70;1.00;;;;;;2611180;54;20458;-80
2024/03/13 10:56:15;;;;;;;4.93;4.73;;;24.70;1.00;;;;;;2614203;39;20795;-80
2024/03/13 10:58:47;;;;;;;4.40;4.30;;;24.70;1.00;;;;;;2612542;47;20428;-80
2024/03/13 11:01:16;;;;;;;5.03;4.83;;;24.70;1.00;;;;;;2608497;54;20432;-64
2024/03/13 11:03:46;;;;;;;4.33;4.23;;;24.70;1.00;;;;;;2609311;54;20414;-63
2024/03/13 11:06:14;;;;;;;5.47;5.27;;;24.70;1.00;;;;;;2610406;39;20820;-64
2024/03/13 11:08:41;;;;;;;6.70;6.30;;;24.70;1.00;;;;;;2612243;47;20431;-63
2024/03/13 11:11:13;;;;;;;4.63;4.53;;;24.70;1.00;;;;;;2610523;54;20581;-64
2024/03/13 11:13:48;;;;;;;5.30;5.10;;;24.70;1.00;;;;;;2611323;54;20408;-64
2024/03/13 11:16:15;;;;;;;5.30;5.10;;;24.70;1.00;;;;;;2611925;47;20987;-65
2024/03/13 11:18:45;;;;;;;7.03;6.83;;;24.70;1.00;;;;;;2610806;54;20447;-64
2024/03/13 11:21:22;;;;;;;5.37;5.17;;;24.70;1.00;;;;;;2611927;54;20419;-63
2024/03/13 11:23:58;;;;;;;5.20;5.00;;;24.80;1.00;;;;;;2613005;54;20438;-63
2024/03/13 11:26:24;;;;;;;4.90;4.70;;;24.80;1.00;;;;;;2612296;51;20427;-64
2024/03/13 11:28:54;;;;;;;4.67;4.50;;;24.70;1.00;;;;;;2612408;54;20506;-63
2024/03/13 11:31:22;;;;;;;5.40;5.20;;;24.80;1.00;;;;;;2608937;54;20412;-64
2024/03/13 11:33:47;;;;;;;5.10;4.90;;;24.80;1.00;;;;;;2611870;47;20423;-64
2024/03/13 11:36:13;;;;;;;5.17;4.97;;;24.70;1.00;;;;;;2612245;54;20426;-64
2024/03/13 11:38:40;;;;;;;4.30;4.20;;;24.70;1.00;;;;;;2610275;54;20161;-64
2024/03/13 11:41:06;;;;;;;4.50;4.40;;;24.80;1.00;;;;;;2611095;54;20855;-64
2024/03/13 11:43:32;;;;;;;5.30;5.10;;;24.80;1.00;;;;;;2611002;54;20431;-64
2024/03/13 11:45:59;;;;;;;4.10;4.00;;;24.80;1.00;;;;;;2611079;54;20462;-64
2024/03/13 11:48:25;;;;;;;4.30;4.20;;;24.80;1.00;;;;;;2612457;54;20177;-64
2024/03/13 11:51:06;;;;;;;3.30;3.20;;;24.80;1.00;;;;;;2611789;54;20427;-63
2024/03/13 11:53:41;;;;;;;5.10;4.90;;;24.80;1.00;;;;;;2611785;47;20517;-63
2024/03/13 11:56:09;;;;;;;3.77;3.67;;;24.80;1.00;;;;;;2611522;54;21338;-63
2024/03/13 11:58:36;;;;;;;3.70;3.60;;;24.80;1.00;;;;;;2611336;47;20552;-62
2024/03/13 12:01:01;;;;;;;4.30;4.20;;;24.80;1.00;;;;;;2610502;54;20495;-66
2024/03/13 12:03:39;;;;;;;4.47;4.37;;;24.80;1.00;;;;;;2610812;54;20435;-65
2024/03/13 12:06:07;;;;;;;4.00;3.90;;;24.80;1.00;;;;;;2611276;54;20292;-65
2024/03/13 12:08:34;;;;;;;4.90;4.70;;;24.80;1.00;;;;;;2611842;54;20404;-65
2024/03/13 12:11:00;;;;;;;4.00;3.90;;;24.80;1.00;;;;;;2610770;54;20414;-67
2024/03/13 12:13:30;;;;;;;4.60;4.50;;;24.70;1.00;;;;;;2611310;54;20404;-66
2024/03/13 12:15:58;;;;;;;3.70;3.60;;;24.70;1.00;;;;;;2610798;54;20684;-67
2024/03/13 12:18:26;;;;;;;3.50;3.40;;;24.70;1.00;;;;;;2612338;54;20403;-66
2024/03/13 12:20:52;;;;;;;3.40;3.30;;;24.70;1.00;;;;;;2612550;54;20420;-65
2024/03/13 12:23:18;;;;;;;3.40;3.30;;;24.70;1.00;;;;;;2612218;54;20870;-66
2024/03/13 12:25:44;;;;;;;4.70;4.60;;;24.70;1.00;;;;;;2612405;54;20403;-66
2024/03/13 12:28:12;;;;;;;3.60;3.50;;;24.70;1.00;;;;;;2613265;54;20187;-66
2024/03/13 12:30:38;;;;;;;4.23;4.13;;;24.70;1.00;;;;;;2612463;54;20442;-66
2024/03/13 12:33:05;;;;;;;4.07;3.97;;;24.70;1.00;;;;;;2612235;54;20411;-66
2024/03/13 12:35:34;;;;;;;4.53;4.43;;;24.80;1.00;;;;;;2613043;54;20680;-67
2024/03/13 12:37:59;;;;;;;5.93;5.73;;;24.80;1.00;;;;;;2611009;54;20418;-65
2024/03/13 12:40:26;;;;;;;4.50;4.40;;;24.80;1.00;;;;;;2612715;54;20503;-66
2024/03/13 12:42:52;;;;;;;5.23;5.03;;;24.80;1.00;;;;;;2609649;39;20602;-63
2024/03/13 12:45:17;;;;;;;4.70;4.60;;;24.80;1.00;;;;;;2609570;54;20526;-66
2024/03/13 12:47:44;;;;;;;4.63;4.53;;;24.70;1.00;;;;;;2611463;54;20759;-64
2024/03/13 12:50:11;;;;;;;4.80;4.70;;;24.70;1.00;;;;;;2610871;54;20169;-65
2024/03/13 12:52:40;;;;;;;5.00;4.80;;;24.70;1.00;;;;;;2610177;54;20423;-65
2024/03/13 12:55:07;;;;;;;5.00;4.80;;;24.70;1.00;;;;;;2611952;54;20401;-65
2024/03/13 12:57:36;;;;;;;5.70;5.50;;;24.70;1.00;;;;;;2612017;54;20522;-66
2024/03/13 13:00:19;;;;;;;5.40;5.20;;;24.70;1.00;;;;;;2610624;54;20396;-59
2024/03/13 13:02:46;;;;;;;5.20;5.00;;;24.70;1.00;;;;;;2609026;54;20399;-59
2024/03/13 13:05:13;;;;;;;5.13;4.93;;;24.70;1.00;;;;;;2611146;54;20435;-59
2024/03/13 13:07:49;;;;;;;5.07;4.87;;;24.70;1.00;;;;;;2608196;54;20450;-59
2024/03/13 13:10:15;;;;;;;5.30;5.10;;;24.70;1.00;;;;;;2610626;54;20415;-67
2024/03/13 13:12:41;;;;;;;5.30;5.10;;;24.70;1.00;;;;;;2611922;54;20420;-67
2024/03/13 13:15:12;;;;;;;5.73;5.53;;;24.70;1.00;;;;;;2609565;54;20150;-66
2024/03/13 13:17:39;;;;;;;7.43;7.00;;;24.70;1.00;;;;;;2611400;54;20419;-66